Time;durP1;ratioP1;P1;durP2;ratioP2;P2;SDS_P1;SDS_P2;PMS_P1;PMS_P2;Temp;Humidity;BMP_temperature;BMP_pressure;BME280_temperature;BME280_humidity;BME280_pressure;Samples;Min_cycle;Max_cycle;Signal;HPM_P1;HPM_P2
2022/08/20 00:00:35;;;;;;;10.88;6.10;;;;;;;;;;5137275;27;20335;-54
2022/08/20 00:03:09;;;;;;;9.88;6.18;;;;;;;;;;5137609;27;20640;-53
2022/08/20 00:05:40;;;;;;;13.15;5.68;;;;;;;;;;5137171;27;20296;-54
2022/08/20 00:08:08;;;;;;;14.90;6.10;;;;;;;;;;5137765;27;20181;-54
2022/08/20 00:10:39;;;;;;;12.23;6.25;;;;;;;;;;5138346;27;20201;-54
2022/08/20 00:13:09;;;;;;;8.25;5.60;;;;;;;;;;5136254;27;20214;-53
2022/08/20 00:15:41;;;;;;;12.75;6.18;;;;;;;;;;5137616;27;20280;-54
2022/08/20 00:18:09;;;;;;;15.50;6.13;;;;;;;;;;5137201;27;20265;-54
2022/08/20 00:20:41;;;;;;;10.65;6.47;;;;;;;;;;5119543;27;20202;-54
2022/08/20 00:23:09;;;;;;;11.98;6.53;;;;;;;;;;5131802;27;20225;-55
2022/08/20 00:25:36;;;;;;;20.42;6.22;;;;;;;;;;5137525;27;20337;-51
2022/08/20 00:28:05;;;;;;;12.80;6.05;;;;;;;;;;5137272;27;20233;-53
2022/08/20 00:30:34;;;;;;;10.23;6.68;;;;;;;;;;5137176;27;20201;-53
2022/08/20 00:33:15;;;;;;;14.50;5.95;;;;;;;;;;5137372;27;20222;-51
2022/08/20 00:35:45;;;;;;;13.82;5.95;;;;;;;;;;5137864;27;20201;-53
2022/08/20 00:38:12;;;;;;;14.60;6.30;;;;;;;;;;5137217;27;20205;-54
2022/08/20 00:40:43;;;;;;;12.80;6.55;;;;;;;;;;5136624;27;20214;-53
2022/08/20 00:43:44;;;;;;;9.95;6.40;;;;;;;;;;5136502;27;20209;-53
2022/08/20 00:46:16;;;;;;;15.38;6.93;;;;;;;;;;5053814;28;20204;-55
2022/08/20 00:48:46;;;;;;;14.65;6.28;;;;;;;;;;5053929;28;20219;-54
2022/08/20 00:51:30;;;;;;;36.03;7.65;;;;;;;;;;5053832;28;20200;-54
2022/08/20 00:54:20;;;;;;;16.30;6.80;;;;;;;;;;5053881;28;20232;-54
2022/08/20 00:56:50;;;;;;;13.35;6.40;;;;;;;;;;5043289;28;20210;-53
2022/08/20 00:59:22;;;;;;;10.77;6.55;;;;;;;;;;5053612;28;20204;-50
2022/08/20 01:01:49;;;;;;;15.00;6.57;;;;;;;;;;5037730;28;20210;-54
2022/08/20 01:04:25;;;;;;;13.13;6.35;;;;;;;;;;5054009;28;20208;-53
2022/08/20 01:06:52;;;;;;;11.23;6.65;;;;;;;;;;5054493;28;20270;-53
2022/08/20 01:09:20;;;;;;;12.77;5.78;;;;;;;;;;5053766;28;20334;-52
2022/08/20 01:12:08;;;;;;;14.27;6.88;;;;;;;;;;5053355;28;20192;-48
2022/08/20 01:14:45;;;;;;;12.85;6.20;;;;;;;;;;5053784;28;20315;-49
2022/08/20 01:17:20;;;;;;;10.13;6.07;;;;;;;;;;5049356;28;20245;-48
2022/08/20 01:19:53;;;;;;;11.10;6.50;;;;;;;;;;5052070;28;20530;-52
2022/08/20 01:25:38;;;;;;;9.88;6.57;;;;;;;;;;5134846;27;20185;-53
2022/08/20 01:28:05;;;;;;;14.38;6.13;;;;;;;;;;5135564;27;20637;-50
2022/08/20 01:30:32;;;;;;;12.75;6.55;;;;;;;;;;5134736;27;20208;-51
2022/08/20 01:33:01;;;;;;;15.82;6.47;;;;;;;;;;5135283;27;20229;-51
2022/08/20 01:35:28;;;;;;;12.75;6.05;;;;;;;;;;5134866;27;20212;-52
2022/08/20 01:37:55;;;;;;;12.27;7.35;;;;;;;;;;5135816;27;20266;-51
2022/08/20 01:40:34;;;;;;;16.02;6.95;;;;;;;;;;5136859;27;20224;-49
2022/08/20 01:43:04;;;;;;;15.00;6.65;;;;;;;;;;5135999;27;20209;-55
2022/08/20 01:45:32;;;;;;;12.18;6.50;;;;;;;;;;5136110;27;20280;-55
2022/08/20 01:47:59;;;;;;;13.10;6.53;;;;;;;;;;5135664;27;20543;-55
2022/08/20 01:50:30;;;;;;;13.30;6.43;;;;;;;;;;5136676;27;20232;-53
2022/08/20 01:53:03;;;;;;;18.08;7.03;;;;;;;;;;5134970;27;20236;-52
2022/08/20 01:55:31;;;;;;;9.23;6.70;;;;;;;;;;5135641;27;20197;-54
2022/08/20 01:57:58;;;;;;;12.55;6.93;;;;;;;;;;5135161;27;20641;-54
2022/08/20 02:00:26;;;;;;;13.02;6.75;;;;;;;;;;5135526;27;20225;-53
2022/08/20 02:02:53;;;;;;;13.45;6.47;;;;;;;;;;5135534;27;20212;-55
2022/08/20 02:05:21;;;;;;;15.75;7.07;;;;;;;;;;5135653;27;20198;-53
2022/08/20 02:07:49;;;;;;;11.80;6.30;;;;;;;;;;5135335;28;20541;-52
2022/08/20 02:10:17;;;;;;;14.85;6.78;;;;;;;;;;5135483;27;20578;-51
2022/08/20 02:12:44;;;;;;;14.75;7.25;;;;;;;;;;5132012;27;20228;-50
2022/08/20 02:15:12;;;;;;;10.38;6.32;;;;;;;;;;5133594;27;20202;-52
2022/08/20 02:17:40;;;;;;;11.02;6.65;;;;;;;;;;5134601;28;20227;-51
2022/08/20 02:20:14;;;;;;;13.23;7.03;;;;;;;;;;5135477;27;20232;-52
2022/08/20 02:22:43;;;;;;;17.02;7.20;;;;;;;;;;5134479;28;20614;-54
2022/08/20 02:25:16;;;;;;;12.98;6.68;;;;;;;;;;5135464;27;20694;-50
2022/08/20 02:27:45;;;;;;;12.50;6.80;;;;;;;;;;5135136;27;20209;-53
2022/08/20 02:30:18;;;;;;;12.48;6.75;;;;;;;;;;5136287;27;20201;-54
2022/08/20 02:32:55;;;;;;;13.93;6.40;;;;;;;;;;5135661;27;20193;-54
2022/08/20 02:35:23;;;;;;;11.95;6.72;;;;;;;;;;5135158;27;20205;-52
2022/08/20 02:37:51;;;;;;;9.13;6.18;;;;;;;;;;5139676;27;20201;-53
2022/08/20 02:40:21;;;;;;;13.57;6.82;;;;;;;;;;5138557;27;20197;-53
2022/08/20 02:43:01;;;;;;;14.77;6.93;;;;;;;;;;5139415;27;20269;-54
2022/08/20 02:45:30;;;;;;;16.50;6.93;;;;;;;;;;5139277;27;20206;-53
2022/08/20 02:47:57;;;;;;;12.68;6.68;;;;;;;;;;5139077;27;20682;-52
2022/08/20 02:50:26;;;;;;;15.93;6.97;;;;;;;;;;5138950;27;20209;-52
2022/08/20 02:52:53;;;;;;;20.10;7.28;;;;;;;;;;5138538;27;20197;-54
2022/08/20 02:55:21;;;;;;;11.07;7.05;;;;;;;;;;5138508;27;20250;-52
2022/08/20 02:57:59;;;;;;;11.65;6.50;;;;;;;;;;5137746;27;20254;-51
2022/08/20 03:00:29;;;;;;;12.80;7.40;;;;;;;;;;5137627;27;20779;-53
2022/08/20 03:03:07;;;;;;;9.50;7.15;;;;;;;;;;5137860;27;20205;-53
2022/08/20 03:05:35;;;;;;;14.50;7.30;;;;;;;;;;5138065;27;20205;-53
2022/08/20 03:08:07;;;;;;;12.68;7.85;;;;;;;;;;5133078;27;20221;-52
2022/08/20 03:10:35;;;;;;;13.98;7.53;;;;;;;;;;5137690;27;20197;-54
2022/08/20 03:13:04;;;;;;;15.88;8.07;;;;;;;;;;5137630;27;20197;-53
2022/08/20 03:15:33;;;;;;;13.55;7.68;;;;;;;;;;5137894;27;20207;-53
2022/08/20 03:18:00;;;;;;;11.45;7.00;;;;;;;;;;5138358;27;20205;-53
2022/08/20 03:20:28;;;;;;;14.10;7.97;;;;;;;;;;5138028;27;20265;-51
2022/08/20 03:22:56;;;;;;;16.83;8.38;;;;;;;;;;5137395;27;20216;-53
2022/08/20 03:25:23;;;;;;;17.65;9.02;;;;;;;;;;5137689;27;20209;-52
2022/08/20 03:27:53;;;;;;;16.65;8.93;;;;;;;;;;5138021;27;20292;-53
2022/08/20 03:30:23;;;;;;;15.38;8.23;;;;;;;;;;5137900;27;20205;-53
2022/08/20 03:32:50;;;;;;;14.20;8.07;;;;;;;;;;5137580;27;20201;-53
2022/08/20 03:35:19;;;;;;;18.85;8.73;;;;;;;;;;5137601;27;20235;-55
2022/08/20 03:37:47;;;;;;;14.75;8.07;;;;;;;;;;5137379;27;20645;-53
2022/08/20 03:40:20;;;;;;;11.15;7.32;;;;;;;;;;5138080;27;20498;-56
2022/08/20 03:42:48;;;;;;;15.77;7.38;;;;;;;;;;5137470;27;20194;-53
2022/08/20 03:45:15;;;;;;;13.38;8.38;;;;;;;;;;5138092;27;20201;-54
2022/08/20 03:47:46;;;;;;;12.60;7.25;;;;;;;;;;5137404;27;20189;-53
2022/08/20 03:50:14;;;;;;;9.82;7.20;;;;;;;;;;5137292;27;20526;-52
2022/08/20 03:52:50;;;;;;;12.18;6.85;;;;;;;;;;5138326;27;20259;-55
2022/08/20 03:55:19;;;;;;;13.48;7.45;;;;;;;;;;5137227;27;20225;-53
2022/08/20 03:57:49;;;;;;;11.20;7.15;;;;;;;;;;5137293;27;20209;-50
2022/08/20 04:00:22;;;;;;;13.55;7.57;;;;;;;;;;5137909;27;20233;-53
2022/08/20 04:02:49;;;;;;;17.17;7.22;;;;;;;;;;5133674;27;20221;-55
2022/08/20 04:05:16;;;;;;;12.00;6.93;;;;;;;;;;5136447;27;20205;-51
2022/08/20 04:07:43;;;;;;;11.45;8.20;;;;;;;;;;5137268;27;20201;-50
2022/08/20 04:10:12;;;;;;;11.75;8.13;;;;;;;;;;5136971;27;20630;-53
2022/08/20 04:12:40;;;;;;;18.83;7.30;;;;;;;;;;5137378;27;20661;-51
2022/08/20 04:15:19;;;;;;;14.05;7.90;;;;;;;;;;5137786;27;20205;-55
2022/08/20 04:17:52;;;;;;;14.93;8.07;;;;;;;;;;5137304;27;20198;-54
2022/08/20 04:20:24;;;;;;;17.50;7.45;;;;;;;;;;5137753;27;20212;-53
2022/08/20 04:22:56;;;;;;;10.70;6.93;;;;;;;;;;5137808;27;20244;-53
2022/08/20 04:25:30;;;;;;;13.32;8.05;;;;;;;;;;5133969;27;20234;-55
2022/08/20 04:28:04;;;;;;;14.73;6.88;;;;;;;;;;5134548;27;20527;-54
2022/08/20 04:30:32;;;;;;;14.35;7.30;;;;;;;;;;5135662;27;20477;-54
2022/08/20 04:32:59;;;;;;;14.10;7.80;;;;;;;;;;5136163;27;20288;-53
2022/08/20 04:35:27;;;;;;;12.13;7.18;;;;;;;;;;5135897;27;20213;-52
2022/08/20 04:38:06;;;;;;;13.07;7.28;;;;;;;;;;5131957;27;20280;-54
2022/08/20 04:40:52;;;;;;;14.05;7.82;;;;;;;;;;5135138;27;20567;-52
2022/08/20 04:43:24;;;;;;;22.67;8.27;;;;;;;;;;5130320;27;20630;-51
2022/08/20 04:45:53;;;;;;;15.55;7.43;;;;;;;;;;5134215;27;20196;-51
2022/08/20 04:48:24;;;;;;;18.83;7.45;;;;;;;;;;5135860;27;20194;-54
2022/08/20 04:50:52;;;;;;;17.35;8.35;;;;;;;;;;5135686;27;20185;-53
2022/08/20 04:53:22;;;;;;;16.60;7.53;;;;;;;;;;5134360;27;20197;-52
2022/08/20 04:55:54;;;;;;;12.95;7.53;;;;;;;;;;5135281;27;20178;-56
2022/08/20 04:58:26;;;;;;;18.75;8.30;;;;;;;;;;5113479;28;20213;-55
2022/08/20 05:00:56;;;;;;;13.02;7.60;;;;;;;;;;5132739;27;20225;-55
2022/08/20 05:03:27;;;;;;;15.27;7.45;;;;;;;;;;5135376;27;20618;-56
2022/08/20 05:05:55;;;;;;;18.13;8.10;;;;;;;;;;5132446;27;20277;-54
2022/08/20 05:08:24;;;;;;;12.45;7.70;;;;;;;;;;5134731;27;20198;-52
2022/08/20 05:10:53;;;;;;;14.68;7.22;;;;;;;;;;5134932;27;20292;-53
2022/08/20 05:13:41;;;;;;;20.58;7.10;;;;;;;;;;5129764;27;20622;-51
2022/08/20 05:16:08;;;;;;;10.23;7.18;;;;;;;;;;5133628;27;20205;-54
2022/08/20 05:18:35;;;;;;;16.63;8.27;;;;;;;;;;5132303;27;20602;-51
2022/08/20 05:21:06;;;;;;;17.25;7.43;;;;;;;;;;5135207;27;20194;-55
2022/08/20 05:23:35;;;;;;;16.38;8.00;;;;;;;;;;5135350;27;20189;-56
2022/08/20 05:26:07;;;;;;;14.70;7.65;;;;;;;;;;5134807;27;20193;-55
2022/08/20 05:28:37;;;;;;;13.48;8.18;;;;;;;;;;5132603;27;20205;-57
2022/08/20 05:31:27;;;;;;;14.35;8.20;;;;;;;;;;5133977;27;20197;-58
2022/08/20 05:34:01;;;;;;;16.17;7.68;;;;;;;;;;5160712;27;20229;-57
2022/08/20 05:36:28;;;;;;;9.93;7.40;;;;;;;;;;5115330;28;20202;-57
2022/08/20 05:38:55;;;;;;;16.92;7.90;;;;;;;;;;5118241;27;20226;-57
2022/08/20 05:41:22;;;;;;;11.55;7.93;;;;;;;;;;5121288;27;20209;-55
2022/08/20 05:44:01;;;;;;;13.15;7.25;;;;;;;;;;5134611;27;20225;-57
2022/08/20 05:46:30;;;;;;;16.40;7.38;;;;;;;;;;5134644;27;20226;-57
2022/08/20 05:49:00;;;;;;;10.52;7.15;;;;;;;;;;5134302;27;20316;-57
2022/08/20 05:51:28;;;;;;;11.27;6.97;;;;;;;;;;5134807;27;20665;-56
2022/08/20 05:53:56;;;;;;;9.52;7.32;;;;;;;;;;5131651;27;20228;-56
2022/08/20 05:56:28;;;;;;;13.45;7.18;;;;;;;;;;5132839;27;20246;-50
2022/08/20 05:59:03;;;;;;;12.57;7.20;;;;;;;;;;5133651;27;20224;-56
2022/08/20 06:01:32;;;;;;;15.00;7.40;;;;;;;;;;5131598;28;20253;-56
2022/08/20 06:06:45;;;;;;;11.13;7.15;;;;;;;;;;5131385;28;20296;-56
2022/08/20 06:09:15;;;;;;;12.30;7.32;;;;;;;;;;5133099;27;20221;-57
2022/08/20 06:11:53;;;;;;;9.15;6.93;;;;;;;;;;5136690;27;20219;-54
2022/08/20 06:14:25;;;;;;;9.75;6.63;;;;;;;;;;5138721;27;20632;-56
2022/08/20 06:16:52;;;;;;;14.38;6.70;;;;;;;;;;5139158;27;20314;-58
2022/08/20 06:19:25;;;;;;;14.18;6.78;;;;;;;;;;5138746;27;20228;-58
2022/08/20 06:21:55;;;;;;;12.93;6.80;;;;;;;;;;5118412;28;20232;-57
2022/08/20 06:24:23;;;;;;;12.85;7.07;;;;;;;;;;5120228;27;20218;-56
2022/08/20 06:26:55;;;;;;;13.05;6.88;;;;;;;;;;5137488;27;20259;-56
2022/08/20 06:29:22;;;;;;;13.30;7.53;;;;;;;;;;5138620;27;20217;-57
2022/08/20 06:31:49;;;;;;;14.43;7.35;;;;;;;;;;5139080;27;20327;-53
2022/08/20 06:34:17;;;;;;;15.75;6.93;;;;;;;;;;5138775;27;20233;-54
2022/08/20 06:36:45;;;;;;;16.33;7.30;;;;;;;;;;5138610;27;20240;-56
2022/08/20 06:39:13;;;;;;;12.07;7.10;;;;;;;;;;5138013;27;20221;-56
2022/08/20 06:41:41;;;;;;;16.73;7.50;;;;;;;;;;5138686;27;20221;-54
2022/08/20 06:44:08;;;;;;;17.83;7.30;;;;;;;;;;5138569;27;20232;-56
2022/08/20 06:46:37;;;;;;;13.30;7.22;;;;;;;;;;5136931;27;20240;-56
2022/08/20 06:49:05;;;;;;;12.23;7.00;;;;;;;;;;5132006;27;20556;-54
2022/08/20 06:51:33;;;;;;;11.23;7.10;;;;;;;;;;5137231;27;20282;-54
2022/08/20 06:54:00;;;;;;;11.48;6.93;;;;;;;;;;5136589;27;20213;-52
2022/08/20 06:56:27;;;;;;;13.40;7.30;;;;;;;;;;5137331;27;20221;-52
2022/08/20 06:58:54;;;;;;;12.93;7.13;;;;;;;;;;5138463;27;20217;-53
2022/08/20 07:01:21;;;;;;;16.75;6.80;;;;;;;;;;5137546;27;20229;-57
2022/08/20 07:03:49;;;;;;;14.82;7.18;;;;;;;;;;5117203;28;20298;-59
2022/08/20 07:06:24;;;;;;;11.10;6.57;;;;;;;;;;5122183;27;20232;-58
2022/08/20 07:08:53;;;;;;;16.85;7.38;;;;;;;;;;5136926;27;20232;-58
2022/08/20 07:11:20;;;;;;;10.07;7.05;;;;;;;;;;5144111;27;20668;-53
2022/08/20 07:13:55;;;;;;;10.25;6.82;;;;;;;;;;5152974;27;20220;-57
2022/08/20 07:16:22;;;;;;;13.43;7.22;;;;;;;;;;5142527;27;20225;-58
2022/08/20 07:18:49;;;;;;;13.57;7.50;;;;;;;;;;5137327;27;20226;-57
2022/08/20 07:21:16;;;;;;;13.82;7.10;;;;;;;;;;5153071;27;20209;-57
2022/08/20 07:23:43;;;;;;;12.73;6.78;;;;;;;;;;5143210;27;20986;-58
2022/08/20 07:26:11;;;;;;;14.32;6.53;;;;;;;;;;5145445;27;20233;-58
2022/08/20 07:28:39;;;;;;;18.58;7.43;;;;;;;;;;5150308;27;20216;-57
2022/08/20 07:33:52;;;;;;;13.63;7.30;;;;;;;;;;5140934;27;20225;-58
2022/08/20 07:36:20;;;;;;;13.25;7.47;;;;;;;;;;5150716;27;20605;-58
2022/08/20 07:38:49;;;;;;;15.35;7.30;;;;;;;;;;5139540;27;20228;-58
2022/08/20 07:41:18;;;;;;;15.82;6.90;;;;;;;;;;5151886;27;20217;-58
2022/08/20 07:43:45;;;;;;;11.25;6.95;;;;;;;;;;5145978;27;20212;-58
2022/08/20 07:46:14;;;;;;;14.88;7.05;;;;;;;;;;5144911;27;20217;-56
2022/08/20 07:48:45;;;;;;;9.40;6.32;;;;;;;;;;5137515;27;20233;-56
2022/08/20 07:51:16;;;;;;;10.50;6.72;;;;;;;;;;5137320;27;20225;-55
2022/08/20 07:53:45;;;;;;;16.02;6.40;;;;;;;;;;5144904;27;20239;-57
2022/08/20 07:56:15;;;;;;;9.48;6.13;;;;;;;;;;5157598;27;20236;-58
2022/08/20 07:58:48;;;;;;;15.27;7.03;;;;;;;;;;5157669;27;20735;-55
2022/08/20 08:01:21;;;;;;;11.38;6.68;;;;;;;;;;5157941;27;20237;-57
2022/08/20 08:03:48;;;;;;;12.75;6.22;;;;;;;;;;5157678;27;20657;-57
2022/08/20 08:06:19;;;;;;;14.07;5.90;;;;;;;;;;5157510;27;20212;-56
2022/08/20 08:08:58;;;;;;;9.32;6.65;;;;;;;;;;5156768;27;20231;-57
2022/08/20 08:11:25;;;;;;;19.85;6.15;;;;;;;;;;5157024;27;20228;-54
2022/08/20 08:13:53;;;;;;;12.52;6.35;;;;;;;;;;5157450;27;20705;-55
2022/08/20 08:16:20;;;;;;;13.15;6.45;;;;;;;;;;5158449;27;20221;-57
2022/08/20 08:18:50;;;;;;;12.35;6.45;;;;;;;;;;5157777;27;20200;-56
2022/08/20 08:21:18;;;;;;;14.82;6.28;;;;;;;;;;5158131;27;20613;-56
2022/08/20 08:23:45;;;;;;;10.63;5.50;;;;;;;;;;5158357;27;20201;-57
2022/08/20 08:26:16;;;;;;;16.60;6.00;;;;;;;;;;5158300;27;20205;-57
2022/08/20 08:28:45;;;;;;;15.18;6.28;;;;;;;;;;5127937;27;20241;-56
2022/08/20 08:31:13;;;;;;;14.38;5.97;;;;;;;;;;5135886;27;20315;-56
2022/08/20 08:33:41;;;;;;;8.88;5.43;;;;;;;;;;5135127;27;20205;-57
2022/08/20 08:36:11;;;;;;;9.43;5.65;;;;;;;;;;5135925;27;20213;-57
2022/08/20 08:38:41;;;;;;;11.15;5.57;;;;;;;;;;5137016;27;20201;-57
2022/08/20 08:41:21;;;;;;;10.55;5.10;;;;;;;;;;5137004;27;20225;-57
2022/08/20 08:43:51;;;;;;;12.05;6.50;;;;;;;;;;5135618;27;20189;-58
2022/08/20 08:46:23;;;;;;;15.65;5.82;;;;;;;;;;5132352;27;20257;-57
2022/08/20 08:48:55;;;;;;;15.30;6.28;;;;;;;;;;5135788;27;20204;-58
2022/08/20 08:51:47;;;;;;;10.77;5.70;;;;;;;;;;5135624;27;20193;-60
2022/08/20 08:54:21;;;;;;;10.77;6.28;;;;;;;;;;5130987;27;20190;-59
2022/08/20 08:56:49;;;;;;;11.77;5.57;;;;;;;;;;5130783;27;20608;-60
2022/08/20 08:59:17;;;;;;;11.65;6.03;;;;;;;;;;5128316;27;20218;-58
2022/08/20 09:01:56;;;;;;;10.82;5.75;;;;;;;;;;5134983;27;20253;-56
2022/08/20 09:04:30;;;;;;;8.02;5.28;;;;;;;;;;5134851;27;20285;-56
2022/08/20 09:06:58;;;;;;;11.60;5.68;;;;;;;;;;5122096;27;20312;-56
2022/08/20 09:09:29;;;;;;;11.93;5.85;;;;;;;;;;5152011;27;20224;-56
2022/08/20 09:12:03;;;;;;;10.43;5.22;;;;;;;;;;5156007;27;20740;-58
2022/08/20 09:14:30;;;;;;;9.57;5.18;;;;;;;;;;5156344;27;20308;-57
2022/08/20 09:16:57;;;;;;;15.45;5.28;;;;;;;;;;5137085;27;20217;-56
2022/08/20 09:19:24;;;;;;;11.63;5.03;;;;;;;;;;5135241;27;20229;-56
2022/08/20 09:21:52;;;;;;;9.95;4.88;;;;;;;;;;5136013;27;20312;-57
2022/08/20 09:24:19;;;;;;;9.52;5.20;;;;;;;;;;5133764;27;20225;-58
2022/08/20 09:26:46;;;;;;;13.45;5.40;;;;;;;;;;5134832;27;20254;-59
2022/08/20 09:29:13;;;;;;;11.40;4.95;;;;;;;;;;5136376;27;20205;-57
2022/08/20 09:31:40;;;;;;;11.80;4.93;;;;;;;;;;5136279;27;20197;-55
2022/08/20 09:34:08;;;;;;;12.07;5.25;;;;;;;;;;5136337;27;20197;-58
2022/08/20 09:36:35;;;;;;;15.85;4.72;;;;;;;;;;5131939;27;20228;-58
2022/08/20 09:39:02;;;;;;;13.80;4.80;;;;;;;;;;5134045;27;20608;-56
2022/08/20 09:41:29;;;;;;;15.38;4.30;;;;;;;;;;5134975;27;20198;-55
2022/08/20 09:44:01;;;;;;;8.57;4.15;;;;;;;;;;5134408;27;20645;-53
2022/08/20 09:46:28;;;;;;;10.82;4.50;;;;;;;;;;5134198;27;20197;-58
2022/08/20 09:48:55;;;;;;;5.55;4.00;;;;;;;;;;5135677;27;20201;-57
2022/08/20 09:51:22;;;;;;;10.20;4.20;;;;;;;;;;5134491;27;20296;-58
2022/08/20 09:53:49;;;;;;;7.97;4.20;;;;;;;;;;5135060;27;20190;-56
2022/08/20 09:56:16;;;;;;;8.73;4.47;;;;;;;;;;5134389;27;20213;-57
2022/08/20 09:58:49;;;;;;;15.90;4.60;;;;;;;;;;5133941;27;20196;-58
2022/08/20 10:01:18;;;;;;;5.97;4.20;;;;;;;;;;5131116;28;20236;-57
2022/08/20 10:03:47;;;;;;;9.23;3.75;;;;;;;;;;5131375;28;20197;-59
2022/08/20 10:06:16;;;;;;;7.90;3.97;;;;;;;;;;5135091;27;20201;-57
2022/08/20 10:08:43;;;;;;;10.05;4.00;;;;;;;;;;5134947;27;20189;-58
2022/08/20 10:11:11;;;;;;;12.93;5.47;;;;;;;;;;5123300;27;20218;-55
2022/08/20 10:13:38;;;;;;;10.48;3.90;;;;;;;;;;5124528;28;20236;-57
2022/08/20 10:16:05;;;;;;;9.45;4.45;;;;;;;;;;5132397;27;20229;-59
2022/08/20 10:18:34;;;;;;;7.90;4.75;;;;;;;;;;5150322;27;20227;-56
2022/08/20 10:21:01;;;;;;;7.93;3.88;;;;;;;;;;5137784;27;20231;-59
2022/08/20 10:23:28;;;;;;;7.18;4.00;;;;;;;;;;5135075;28;20325;-58
2022/08/20 10:25:55;;;;;;;8.63;3.53;;;;;;;;;;5134359;27;20222;-57
2022/08/20 10:28:22;;;;;;;10.55;3.90;;;;;;;;;;5134930;27;20235;-57
2022/08/20 10:30:49;;;;;;;8.45;3.92;;;;;;;;;;5134598;27;20221;-57
2022/08/20 10:33:16;;;;;;;9.27;3.70;;;;;;;;;;5129045;27;20214;-58
2022/08/20 10:35:43;;;;;;;6.30;3.08;;;;;;;;;;5134559;27;20245;-56
2022/08/20 10:38:10;;;;;;;6.88;3.50;;;;;;;;;;5134730;27;20228;-57
2022/08/20 10:40:37;;;;;;;11.02;3.83;;;;;;;;;;5131969;27;20237;-58
2022/08/20 10:43:04;;;;;;;7.15;3.63;;;;;;;;;;5134818;27;20221;-57
2022/08/20 10:45:31;;;;;;;10.10;3.35;;;;;;;;;;5134750;27;20302;-59
2022/08/20 10:47:59;;;;;;;12.55;3.80;;;;;;;;;;5134639;27;20221;-57
2022/08/20 10:50:26;;;;;;;5.20;3.53;;;;;;;;;;5134999;27;20225;-56
2022/08/20 10:52:56;;;;;;;6.05;3.00;;;;;;;;;;5134705;27;20712;-58
2022/08/20 10:55:24;;;;;;;12.85;3.40;;;;;;;;;;5134604;27;20248;-57
2022/08/20 10:57:51;;;;;;;8.57;3.38;;;;;;;;;;5157238;27;20232;-58
2022/08/20 11:00:18;;;;;;;16.23;3.67;;;;;;;;;;5159048;27;20684;-57
2022/08/20 11:02:45;;;;;;;9.35;3.10;;;;;;;;;;5158164;27;20289;-58
2022/08/20 11:05:12;;;;;;;20.88;3.78;;;;;;;;;;5144540;27;20296;-58
2022/08/20 11:07:41;;;;;;;7.10;2.90;;;;;;;;;;5137818;27;20217;-58
2022/08/20 11:10:24;;;;;;;9.43;3.38;;;;;;;;;;5138232;27;20373;-57
2022/08/20 11:12:51;;;;;;;34.85;4.93;;;;;;;;;;5137615;27;20232;-56
2022/08/20 11:15:18;;;;;;;58.97;7.18;;;;;;;;;;5137474;27;20225;-57
2022/08/20 11:17:46;;;;;;;22.67;4.05;;;;;;;;;;5137999;27;20217;-58
2022/08/20 11:20:15;;;;;;;79.47;6.38;;;;;;;;;;5137877;27;20229;-58
2022/08/20 11:22:42;;;;;;;20.42;3.10;;;;;;;;;;5137928;27;20225;-57
2022/08/20 11:25:09;;;;;;;15.18;4.10;;;;;;;;;;5137443;27;20232;-57
2022/08/20 11:27:40;;;;;;;7.53;2.80;;;;;;;;;;5151197;27;20217;-59
2022/08/20 11:30:10;;;;;;;6.55;2.53;;;;;;;;;;5158639;27;20628;-57
2022/08/20 11:32:37;;;;;;;9.57;2.90;;;;;;;;;;5158610;27;20229;-57
2022/08/20 11:35:05;;;;;;;31.95;4.40;;;;;;;;;;5158467;27;20220;-58
2022/08/20 11:37:54;;;;;;;3.97;2.75;;;;;;;;;;5158464;27;20340;-57
2022/08/20 11:40:22;;;;;;;6.03;2.63;;;;;;;;;;5157967;27;20321;-58
2022/08/20 11:42:49;;;;;;;42.60;4.68;;;;;;;;;;5158117;27;20216;-57
2022/08/20 11:45:36;;;;;;;11.35;3.22;;;;;;;;;;5158079;27;20268;-56
2022/08/20 11:48:04;;;;;;;3.67;2.33;;;;;;;;;;5158243;27;20225;-57
2022/08/20 11:50:31;;;;;;;4.72;2.60;;;;;;;;;;5158062;27;20307;-57
2022/08/20 11:52:58;;;;;;;74.63;5.63;;;;;;;;;;5158056;27;20221;-58
2022/08/20 11:55:27;;;;;;;3.53;1.90;;;;;;;;;;5152337;27;20537;-57
2022/08/20 11:57:56;;;;;;;7.60;2.55;;;;;;;;;;5137162;27;20548;-58
2022/08/20 12:00:28;;;;;;;6.85;2.63;;;;;;;;;;5136864;27;20237;-57
2022/08/20 12:03:00;;;;;;;7.45;2.70;;;;;;;;;;5137308;27;20229;-58
2022/08/20 12:05:28;;;;;;;6.47;2.53;;;;;;;;;;5135800;27;20241;-57
2022/08/20 12:07:56;;;;;;;4.55;2.08;;;;;;;;;;5136953;27;20301;-57
2022/08/20 12:10:25;;;;;;;5.35;3.05;;;;;;;;;;5135655;27;20224;-56
2022/08/20 12:12:53;;;;;;;4.95;2.20;;;;;;;;;;5136615;27;20217;-57
2022/08/20 12:15:20;;;;;;;3.50;2.30;;;;;;;;;;5136396;27;20217;-59
2022/08/20 12:17:47;;;;;;;6.43;2.67;;;;;;;;;;5136229;27;20253;-58
2022/08/20 12:20:15;;;;;;;3.15;1.90;;;;;;;;;;5135875;27;20225;-58
2022/08/20 12:22:43;;;;;;;3.83;2.33;;;;;;;;;;5135478;27;20236;-58
2022/08/20 12:25:10;;;;;;;5.97;2.40;;;;;;;;;;5135244;27;20228;-58
2022/08/20 12:27:38;;;;;;;4.43;1.98;;;;;;;;;;5152534;27;20236;-58
2022/08/20 12:30:09;;;;;;;5.25;2.17;;;;;;;;;;5154039;27;20248;-58
2022/08/20 12:32:36;;;;;;;5.13;1.85;;;;;;;;;;5156531;27;20217;-57
2022/08/20 12:35:05;;;;;;;4.50;1.92;;;;;;;;;;5156366;27;20216;-58
2022/08/20 12:37:33;;;;;;;2.80;1.75;;;;;;;;;;5156770;27;20228;-58
2022/08/20 12:40:03;;;;;;;3.03;1.67;;;;;;;;;;5156766;27;20284;-57
2022/08/20 12:42:30;;;;;;;3.40;1.92;;;;;;;;;;5156981;27;20289;-57
2022/08/20 12:44:58;;;;;;;5.97;2.10;;;;;;;;;;5157390;27;20217;-58
2022/08/20 12:47:30;;;;;;;10.50;2.33;;;;;;;;;;5156780;27;20305;-58
2022/08/20 12:50:12;;;;;;;7.20;2.38;;;;;;;;;;5157160;27;20228;-57
2022/08/20 12:52:40;;;;;;;5.75;2.25;;;;;;;;;;5156580;27;20224;-57
2022/08/20 12:55:09;;;;;;;2.95;1.90;;;;;;;;;;5156501;27;20216;-58
2022/08/20 12:57:42;;;;;;;3.25;1.90;;;;;;;;;;5137367;27;20294;-58
2022/08/20 13:00:11;;;;;;;3.50;1.95;;;;;;;;;;5135939;27;20269;-58
2022/08/20 13:02:40;;;;;;;8.23;2.45;;;;;;;;;;5135675;27;20559;-57
2022/08/20 13:05:08;;;;;;;4.75;2.03;;;;;;;;;;5136194;27;20224;-58
2022/08/20 13:07:36;;;;;;;5.30;1.90;;;;;;;;;;5135829;27;20273;-58
2022/08/20 13:10:05;;;;;;;6.43;2.30;;;;;;;;;;5135495;27;20213;-58
2022/08/20 13:12:32;;;;;;;3.83;2.30;;;;;;;;;;5135234;27;20670;-57
2022/08/20 13:14:59;;;;;;;4.22;2.15;;;;;;;;;;5135736;27;20273;-58
2022/08/20 13:17:26;;;;;;;7.25;2.05;;;;;;;;;;5135874;27;20255;-56
2022/08/20 13:20:08;;;;;;;5.88;2.22;;;;;;;;;;5135255;27;20654;-58
2022/08/20 13:22:35;;;;;;;4.25;2.08;;;;;;;;;;5135570;27;20227;-57
2022/08/20 13:25:03;;;;;;;5.45;2.13;;;;;;;;;;5124541;27;20218;-57
2022/08/20 13:27:30;;;;;;;3.55;1.80;;;;;;;;;;5149552;27;20228;-58
2022/08/20 13:29:57;;;;;;;2.92;1.95;;;;;;;;;;5153126;27;20223;-58
2022/08/20 13:32:25;;;;;;;3.58;2.10;;;;;;;;;;5137364;27;20244;-58
2022/08/20 13:34:52;;;;;;;6.40;1.98;;;;;;;;;;5135200;27;20243;-57
2022/08/20 13:37:26;;;;;;;5.97;2.47;;;;;;;;;;5130671;27;20299;-57
2022/08/20 13:39:55;;;;;;;7.07;2.15;;;;;;;;;;5114175;27;20666;-58
2022/08/20 13:42:22;;;;;;;3.47;2.00;;;;;;;;;;5114765;28;20226;-58
2022/08/20 13:44:49;;;;;;;4.35;2.28;;;;;;;;;;5128566;27;20229;-57
2022/08/20 13:47:18;;;;;;;3.75;1.75;;;;;;;;;;5135860;27;20221;-57
2022/08/20 13:49:45;;;;;;;33.30;4.45;;;;;;;;;;5134846;27;20228;-57
2022/08/20 13:52:12;;;;;;;4.50;2.05;;;;;;;;;;5135134;27;20696;-57
2022/08/20 13:54:43;;;;;;;7.57;2.03;;;;;;;;;;5134465;27;20221;-58
2022/08/20 13:57:14;;;;;;;5.80;2.60;;;;;;;;;;5134948;27;20254;-57
2022/08/20 13:59:42;;;;;;;6.70;3.15;;;;;;;;;;5134464;27;20313;-58
2022/08/20 14:02:10;;;;;;;5.90;2.15;;;;;;;;;;5135244;27;20217;-58
2022/08/20 14:04:38;;;;;;;7.13;2.70;;;;;;;;;;5134707;27;20384;-57
2022/08/20 14:07:28;;;;;;;7.65;2.53;;;;;;;;;;5135062;27;20228;-57
2022/08/20 14:10:07;;;;;;;11.27;3.38;;;;;;;;;;5128363;27;20235;-57
2022/08/20 14:12:34;;;;;;;4.90;1.83;;;;;;;;;;5134629;27;20664;-57
2022/08/20 14:15:03;;;;;;;5.60;2.88;;;;;;;;;;5134929;27;20220;-57
2022/08/20 14:17:33;;;;;;;3.47;2.13;;;;;;;;;;5134680;27;20745;-57
2022/08/20 14:20:06;;;;;;;7.00;2.33;;;;;;;;;;5132125;27;20692;-57
2022/08/20 14:22:34;;;;;;;5.78;2.17;;;;;;;;;;5131706;27;20250;-58
2022/08/20 14:25:04;;;;;;;4.20;2.22;;;;;;;;;;5134691;27;20316;-56
2022/08/20 14:27:32;;;;;;;7.63;2.42;;;;;;;;;;5152305;27;20220;-56
2022/08/20 14:30:00;;;;;;;7.07;2.20;;;;;;;;;;5155411;27;20692;-57
2022/08/20 14:32:27;;;;;;;4.53;2.10;;;;;;;;;;5156947;27;20224;-58
2022/08/20 14:34:57;;;;;;;2.80;1.80;;;;;;;;;;5158577;27;20231;-57
2022/08/20 14:37:36;;;;;;;4.20;1.77;;;;;;;;;;5159371;27;20236;-57
2022/08/20 14:40:07;;;;;;;5.13;1.75;;;;;;;;;;5159066;27;20281;-57
2022/08/20 14:42:35;;;;;;;3.42;1.83;;;;;;;;;;5158912;27;20225;-58
2022/08/20 14:45:05;;;;;;;5.97;1.67;;;;;;;;;;5159450;27;20538;-57
2022/08/20 14:47:37;;;;;;;2.60;2.00;;;;;;;;;;5159065;27;20285;-56
2022/08/20 14:50:11;;;;;;;4.10;1.90;;;;;;;;;;5159719;27;20243;-57
2022/08/20 14:52:39;;;;;;;7.22;2.03;;;;;;;;;;5158457;27;20687;-58
2022/08/20 14:55:11;;;;;;;5.78;2.10;;;;;;;;;;5159582;27;20221;-58
2022/08/20 14:57:39;;;;;;;4.75;1.80;;;;;;;;;;5139708;27;20237;-57